Time;durP1;ratioP1;P1;durP2;ratioP2;P2;SDS_P1;SDS_P2;PMS_P1;PMS_P2;Temp;Humidity;BMP_temperature;BMP_pressure;BME280_temperature;BME280_humidity;BME280_pressure;Samples;Min_cycle;Max_cycle;Signal;HPM_P1;HPM_P2
2022/11/21 00:00:44;;;;;;;;;;;11.00;99.90;;;;;;5115633;28;19908;-24
2022/11/21 00:03:10;;;;;;;;;;;11.00;99.90;;;;;;5114694;28;19924;-24
2022/11/21 00:05:41;;;;;;;;;;;11.00;99.90;;;;;;5114859;28;19914;-25
2022/11/21 00:08:06;;;;;;;;;;;11.10;99.90;;;;;;5114757;28;20380;-24
2022/11/21 00:10:32;;;;;;;;;;;11.00;99.90;;;;;;5114871;28;19908;-24
2022/11/21 00:12:58;;;;;;;;;;;11.00;99.90;;;;;;5114781;28;20449;-24
2022/11/21 00:15:24;;;;;;;;;;;11.00;99.90;;;;;;5114874;28;19919;-24
2022/11/21 00:17:50;;;;;;;;;;;11.00;99.90;;;;;;5114636;28;19976;-24
2022/11/21 00:20:17;;;;;;;;;;;11.00;99.90;;;;;;5114686;28;19998;-24
2022/11/21 00:22:43;;;;;;;;;;;11.00;99.90;;;;;;5114676;28;19915;-24
2022/11/21 00:25:08;;;;;;;;;;;11.00;99.90;;;;;;5114899;28;19907;-24
2022/11/21 00:27:34;;;;;;;;;;;11.00;99.90;;;;;;5114285;28;19912;-24
2022/11/21 00:29:59;;;;;;;;;;;11.00;99.90;;;;;;5114116;28;19907;-24
2022/11/21 00:32:25;;;;;;;;;;;11.00;99.90;;;;;;5114415;28;19943;-24
2022/11/21 00:34:50;;;;;;;;;;;11.00;99.90;;;;;;5114635;28;20315;-24
2022/11/21 00:37:16;;;;;;;;;;;11.00;99.90;;;;;;5114070;28;19911;-24
2022/11/21 00:39:42;;;;;;;;;;;11.00;99.90;;;;;;5112351;28;19981;-24
2022/11/21 00:42:07;;;;;;;;;;;11.00;99.90;;;;;;5114080;28;19907;-24
2022/11/21 00:44:33;;;;;;;;;;;11.00;99.90;;;;;;5114242;28;19995;-24
2022/11/21 00:46:58;;;;;;;;;;;11.00;99.90;;;;;;5112826;28;20372;-24
2022/11/21 00:49:24;;;;;;;;;;;11.00;99.90;;;;;;5113754;28;19908;-24
2022/11/21 00:51:49;;;;;;;;;;;11.00;99.90;;;;;;5113825;28;20479;-24
2022/11/21 00:54:15;;;;;;;;;;;11.00;99.90;;;;;;5114226;28;19912;-24
2022/11/21 00:56:40;;;;;;;;;;;11.00;99.90;;;;;;5114275;28;19912;-24
2022/11/21 00:59:06;;;;;;;;;;;11.00;99.90;;;;;;5113190;28;19911;-24
2022/11/21 01:01:31;;;;;;;;;;;11.00;99.90;;;;;;5113753;28;19923;-24
2022/11/21 01:03:57;;;;;;;;;;;11.00;99.90;;;;;;5112661;28;19961;-24
2022/11/21 01:06:23;;;;;;;;;;;10.90;99.90;;;;;;5114444;28;19946;-24
2022/11/21 01:08:49;;;;;;;;;;;11.00;99.90;;;;;;5113505;28;20394;-24
2022/11/21 01:11:15;;;;;;;;;;;11.00;99.90;;;;;;5114199;28;19908;-24
2022/11/21 01:13:41;;;;;;;;;;;11.00;99.90;;;;;;5115106;28;19984;-24
2022/11/21 01:16:18;;;;;;;;;;;10.90;99.90;;;;;;5115580;28;19947;-24
2022/11/21 01:18:43;;;;;;;;;;;10.90;99.90;;;;;;5114118;28;19911;-24
2022/11/21 01:21:16;;;;;;;;;;;11.00;99.90;;;;;;5114911;28;19994;-24
2022/11/21 01:23:42;;;;;;;;;;;11.00;99.90;;;;;;5114448;28;19954;-24
2022/11/21 01:26:14;;;;;;;;;;;11.00;99.90;;;;;;5114031;28;19997;-24
2022/11/21 01:28:40;;;;;;;;;;;11.00;99.90;;;;;;5113496;28;19915;-25
2022/11/21 01:31:07;;;;;;;;;;;11.00;99.90;;;;;;5113062;28;19908;-24
2022/11/21 01:33:33;;;;;;;;;;;10.90;99.90;;;;;;5112508;28;19940;-24
2022/11/21 01:36:15;;;;;;;;;;;11.00;99.90;;;;;;5114874;28;20554;-24
2022/11/21 01:38:42;;;;;;;;;;;11.00;99.90;;;;;;5113223;28;19926;-24
2022/11/21 01:41:09;;;;;;;;;;;11.00;99.90;;;;;;5113784;28;19911;-24
2022/11/21 01:43:35;;;;;;;;;;;10.90;99.90;;;;;;5114489;28;20384;-24
2022/11/21 01:46:04;;;;;;;;;;;10.90;99.90;;;;;;5112807;28;19907;-24
2022/11/21 01:48:34;;;;;;;;;;;11.00;99.90;;;;;;5113033;28;20217;-24
2022/11/21 01:51:10;;;;;;;;;;;10.90;99.90;;;;;;5112637;28;20364;-24
2022/11/21 01:53:37;;;;;;;;;;;10.90;99.90;;;;;;5113607;28;19916;-23
2022/11/21 01:56:03;;;;;;;;;;;10.90;99.90;;;;;;5113173;28;19908;-24
2022/11/21 01:58:30;;;;;;;;;;;10.90;99.90;;;;;;5114531;28;19927;-24
2022/11/21 02:00:55;;;;;;;;;;;10.90;99.90;;;;;;5113978;28;19952;-24
2022/11/21 02:03:23;;;;;;;;;;;10.90;99.90;;;;;;5134599;22;20015;-27
2022/11/21 02:05:51;;;;;;;;;;;10.90;99.90;;;;;;5092120;28;19964;-27
2022/11/21 02:08:20;;;;;;;;;;;10.90;99.90;;;;;;5091896;28;19950;-27
2022/11/21 02:11:05;;;;;;;;;;;10.90;99.90;;;;;;5074633;28;19974;-26
2022/11/21 02:13:31;;;;;;;;;;;10.90;99.90;;;;;;5030517;28;19909;-26
2022/11/21 02:15:57;;;;;;;;;;;10.90;99.90;;;;;;5072136;28;20391;-26
2022/11/21 02:18:22;;;;;;;;;;;10.90;99.90;;;;;;5071123;28;19916;-26
2022/11/21 02:20:52;;;;;;;;;;;10.90;99.90;;;;;;5071382;28;19999;-26
2022/11/21 02:23:17;;;;;;;;;;;10.90;99.90;;;;;;5071552;28;19909;-26
2022/11/21 02:25:43;;;;;;;;;;;10.90;99.90;;;;;;5071617;28;19932;-26
2022/11/21 02:28:11;;;;;;;;;;;10.90;99.90;;;;;;5071047;28;19908;-26
2022/11/21 02:30:37;;;;;;;;;;;10.90;99.90;;;;;;5071436;28;19916;-26
2022/11/21 02:33:03;;;;;;;;;;;10.90;99.90;;;;;;5071669;28;19916;-26
2022/11/21 02:35:29;;;;;;;;;;;10.90;99.90;;;;;;5071375;28;20361;-26
2022/11/21 02:38:13;;;;;;;;;;;10.90;99.90;;;;;;5071099;28;19976;-25
2022/11/21 02:40:41;;;;;;;;;;;10.90;99.90;;;;;;5071494;28;19962;-26
2022/11/21 02:43:13;;;;;;;;;;;10.90;99.90;;;;;;5071168;28;20281;-26
2022/11/21 02:45:39;;;;;;;;;;;10.90;99.90;;;;;;5071421;28;20381;-26
2022/11/21 02:48:05;;;;;;;;;;;10.90;99.90;;;;;;5071010;28;20377;-26
2022/11/21 02:50:32;;;;;;;;;;;10.90;99.90;;;;;;5071419;28;20314;-26
2022/11/21 02:52:58;;;;;;;;;;;10.90;99.90;;;;;;5071237;28;19916;-26
2022/11/21 02:55:24;;;;;;;;;;;10.90;99.90;;;;;;5071317;28;19909;-26
2022/11/21 02:57:49;;;;;;;;;;;10.90;99.90;;;;;;5070857;28;19917;-25
2022/11/21 03:00:15;;;;;;;;;;;10.90;99.90;;;;;;5071010;28;20313;-26
2022/11/21 03:02:41;;;;;;;;;;;10.80;99.90;;;;;;5071151;28;19951;-26
2022/11/21 03:05:08;;;;;;;;;;;10.80;99.90;;;;;;5071146;28;19955;-25
2022/11/21 03:07:33;;;;;;;;;;;10.90;99.90;;;;;;5072032;28;20107;-26
2022/11/21 03:09:59;;;;;;;;;;;10.90;99.90;;;;;;5071072;28;20409;-26
2022/11/21 03:12:24;;;;;;;;;;;10.80;99.90;;;;;;5071273;28;19908;-26
2022/11/21 03:14:50;;;;;;;;;;;10.80;99.90;;;;;;5072557;28;19908;-26
2022/11/21 03:17:15;;;;;;;;;;;10.80;99.90;;;;;;5072694;28;19955;-25
2022/11/21 03:19:41;;;;;;;;;;;10.80;99.90;;;;;;5070806;28;19908;-26
2022/11/21 03:22:06;;;;;;;;;;;10.80;99.90;;;;;;5073556;28;19920;-26
2022/11/21 03:24:32;;;;;;;;;;;10.80;99.90;;;;;;5071355;28;19908;-25
2022/11/21 03:26:57;;;;;;;;;;;10.80;99.90;;;;;;5072633;28;20383;-25
2022/11/21 03:29:32;;;;;;;;;;;10.80;99.90;;;;;;5074422;28;20499;-25
2022/11/21 03:31:58;;;;;;;;;;;10.80;99.90;;;;;;5074909;28;19909;-25
2022/11/21 03:34:23;;;;;;;;;;;10.80;99.90;;;;;;5075596;28;19915;-25
2022/11/21 03:36:49;;;;;;;;;;;10.80;99.90;;;;;;5075128;28;20419;-25
2022/11/21 03:39:14;;;;;;;;;;;10.80;99.90;;;;;;5075057;28;20399;-25
2022/11/21 03:41:40;;;;;;;;;;;10.80;99.90;;;;;;5076274;28;19913;-25
2022/11/21 03:44:06;;;;;;;;;;;10.80;99.90;;;;;;5074493;28;19914;-25
2022/11/21 03:46:33;;;;;;;;;;;10.80;99.90;;;;;;5074757;28;19908;-25
2022/11/21 03:48:59;;;;;;;;;;;10.80;99.90;;;;;;5073802;28;20374;-25
2022/11/21 03:51:24;;;;;;;;;;;10.80;99.90;;;;;;5074846;28;19909;-25
2022/11/21 03:53:50;;;;;;;;;;;10.80;99.90;;;;;;5074274;28;19912;-25
2022/11/21 03:56:16;;;;;;;;;;;10.80;99.90;;;;;;5074111;28;19914;-26
2022/11/21 03:58:41;;;;;;;;;;;10.80;99.90;;;;;;5073570;28;19919;-25
2022/11/21 04:01:07;;;;;;;;;;;10.80;99.90;;;;;;5074272;28;19908;-25
2022/11/21 04:03:32;;;;;;;;;;;10.80;99.90;;;;;;5073914;28;20354;-25
2022/11/21 04:05:58;;;;;;;;;;;10.80;99.90;;;;;;5074077;28;19913;-26
2022/11/21 04:08:24;;;;;;;;;;;10.80;99.90;;;;;;5073478;28;19915;-26
2022/11/21 04:10:50;;;;;;;;;;;10.80;99.90;;;;;;5073914;28;19912;-26
2022/11/21 04:13:16;;;;;;;;;;;10.80;99.90;;;;;;5073946;28;19908;-25
2022/11/21 04:15:41;;;;;;;;;;;10.80;99.90;;;;;;5073869;28;19920;-26
2022/11/21 04:18:07;;;;;;;;;;;10.80;99.90;;;;;;5073131;28;19917;-25
2022/11/21 04:20:32;;;;;;;;;;;10.80;99.90;;;;;;5073984;28;19908;-26
2022/11/21 04:22:58;;;;;;;;;;;10.80;99.90;;;;;;5074254;28;19959;-25
2022/11/21 04:25:23;;;;;;;;;;;10.80;99.90;;;;;;5073724;28;19919;-25
2022/11/21 04:27:49;;;;;;;;;;;10.80;99.90;;;;;;5074392;28;19923;-25
2022/11/21 04:30:18;;;;;;;;;;;10.80;99.90;;;;;;5077051;28;19947;-25
2022/11/21 04:32:44;;;;;;;;;;;10.80;99.90;;;;;;5075528;28;19908;-26
2022/11/21 04:35:09;;;;;;;;;;;10.80;99.90;;;;;;5073558;28;19916;-25
2022/11/21 04:37:37;;;;;;;;;;;10.80;99.90;;;;;;5073089;28;20370;-26
2022/11/21 04:40:03;;;;;;;;;;;10.80;99.90;;;;;;5075217;28;19944;-26
2022/11/21 04:42:28;;;;;;;;;;;10.80;99.90;;;;;;5073573;28;19952;-25
2022/11/21 04:44:54;;;;;;;;;;;10.80;99.90;;;;;;5074419;28;20405;-25
2022/11/21 04:47:19;;;;;;;;;;;10.80;99.90;;;;;;5074605;28;19917;-25
2022/11/21 04:49:45;;;;;;;;;;;10.80;99.90;;;;;;5073083;28;19908;-25
2022/11/21 04:52:11;;;;;;;;;;;10.80;99.90;;;;;;5055469;28;20285;-26
2022/11/21 04:54:37;;;;;;;;;;;10.70;99.90;;;;;;5073188;28;19991;-26
2022/11/21 04:57:02;;;;;;;;;;;10.80;99.90;;;;;;5073123;28;20007;-25
2022/11/21 04:59:28;;;;;;;;;;;10.80;99.90;;;;;;5072662;28;19966;-26
2022/11/21 05:01:53;;;;;;;;;;;10.70;99.90;;;;;;5072924;28;19920;-26
2022/11/21 05:04:19;;;;;;;;;;;10.70;99.90;;;;;;5072913;28;20082;-26
2022/11/21 05:06:44;;;;;;;;;;;10.70;99.90;;;;;;5072905;28;19919;-26
2022/11/21 05:09:30;;;;;;;;;;;10.70;99.90;;;;;;5072210;28;20397;-26
2022/11/21 05:14:39;;;;;;;;;;;10.70;99.90;;;;;;5073431;28;20404;-25
2022/11/21 05:17:05;;;;;;;;;;;10.70;99.90;;;;;;5072752;28;19912;-26
2022/11/21 05:19:30;;;;;;;;;;;10.70;99.90;;;;;;5072153;28;19920;-25
2022/11/21 05:21:56;;;;;;;;;;;10.70;99.90;;;;;;5073125;28;19912;-27
2022/11/21 05:24:21;;;;;;;;;;;10.70;99.90;;;;;;5072875;28;19969;-26
2022/11/21 05:26:47;;;;;;;;;;;10.70;99.90;;;;;;5073091;28;19908;-26
2022/11/21 05:29:12;;;;;;;;;;;10.70;99.90;;;;;;5071955;28;19916;-26
2022/11/21 05:31:38;;;;;;;;;;;10.70;99.90;;;;;;5072487;28;19909;-26
2022/11/21 05:34:03;;;;;;;;;;;10.70;99.90;;;;;;5072661;28;19908;-26
2022/11/21 05:36:29;;;;;;;;;;;10.70;99.90;;;;;;5072750;28;19908;-26
2022/11/21 05:38:54;;;;;;;;;;;10.70;99.90;;;;;;5073314;28;20261;-27
2022/11/21 05:41:20;;;;;;;;;;;10.70;99.90;;;;;;5072735;28;19912;-26
2022/11/21 05:43:45;;;;;;;;;;;10.70;99.90;;;;;;5054492;28;19909;-26
2022/11/21 05:46:21;;;;;;;;;;;10.70;99.90;;;;;;5073720;28;20368;-26
2022/11/21 05:48:47;;;;;;;;;;;10.70;99.90;;;;;;5071209;28;19913;-27
2022/11/21 05:51:13;;;;;;;;;;;10.70;99.90;;;;;;5072300;28;19962;-26
2022/11/21 05:53:38;;;;;;;;;;;10.70;99.90;;;;;;5072552;28;19914;-26
2022/11/21 05:56:05;;;;;;;;;;;10.70;99.90;;;;;;5074290;28;19908;-26
2022/11/21 05:58:30;;;;;;;;;;;10.70;99.90;;;;;;5071985;28;19919;-26
2022/11/21 06:00:57;;;;;;;;;;;10.70;99.90;;;;;;5072215;28;19909;-26
2022/11/21 06:03:26;;;;;;;;;;;10.70;99.90;;;;;;5071796;28;20010;-26
2022/11/21 06:06:11;;;;;;;;;;;10.70;99.90;;;;;;5072106;28;19908;-26
2022/11/21 06:08:38;;;;;;;;;;;10.70;99.90;;;;;;5074468;28;19909;-26
2022/11/21 06:11:05;;;;;;;;;;;10.70;99.90;;;;;;5073990;28;20348;-26
2022/11/21 06:13:32;;;;;;;;;;;10.70;99.90;;;;;;5073926;28;19913;-25
2022/11/21 06:16:02;;;;;;;;;;;10.70;99.90;;;;;;5073231;28;19940;-25
2022/11/21 06:18:29;;;;;;;;;;;10.70;99.90;;;;;;5072387;28;19913;-26
2022/11/21 06:20:59;;;;;;;;;;;10.60;99.90;;;;;;5072331;28;19915;-25
2022/11/21 06:23:25;;;;;;;;;;;10.70;99.90;;;;;;5071854;28;19908;-25
2022/11/21 06:25:55;;;;;;;;;;;10.70;99.90;;;;;;5071817;28;20261;-25
2022/11/21 06:28:20;;;;;;;;;;;10.70;99.90;;;;;;5072416;28;20007;-25
2022/11/21 06:30:50;;;;;;;;;;;10.70;99.90;;;;;;5071902;28;19947;-25
2022/11/21 06:33:16;;;;;;;;;;;10.70;99.90;;;;;;5071548;28;19954;-25
2022/11/21 06:35:42;;;;;;;;;;;10.60;99.90;;;;;;5071514;28;19908;-25
2022/11/21 06:38:07;;;;;;;;;;;10.60;99.90;;;;;;5070859;28;19985;-25
2022/11/21 06:40:33;;;;;;;;;;;10.70;99.90;;;;;;5071369;28;19974;-25
2022/11/21 06:42:59;;;;;;;;;;;10.60;99.90;;;;;;5071510;28;20415;-25
2022/11/21 06:45:24;;;;;;;;;;;10.60;99.90;;;;;;5071433;28;19919;-25
2022/11/21 06:47:50;;;;;;;;;;;10.60;99.90;;;;;;5072051;28;19970;-25
2022/11/21 06:50:15;;;;;;;;;;;10.60;99.90;;;;;;5071021;28;19908;-25
2022/11/21 06:52:41;;;;;;;;;;;10.60;99.90;;;;;;5072541;28;20548;-25
2022/11/21 06:55:07;;;;;;;;;;;10.60;99.90;;;;;;5071995;28;20515;-26
2022/11/21 06:57:33;;;;;;;;;;;10.70;99.90;;;;;;5071337;28;20346;-26
2022/11/21 06:59:58;;;;;;;;;;;10.60;99.90;;;;;;5072603;28;20144;-26
2022/11/21 07:02:24;;;;;;;;;;;10.60;99.90;;;;;;5075105;28;19987;-26
2022/11/21 07:04:49;;;;;;;;;;;10.60;99.90;;;;;;5075298;28;19958;-27
2022/11/21 07:07:15;;;;;;;;;;;10.60;99.90;;;;;;5075743;28;19915;-26
2022/11/21 07:09:43;;;;;;;;;;;10.60;99.90;;;;;;5075943;28;19935;-26
2022/11/21 07:14:53;;;;;;;;;;;10.60;99.90;;;;;;5075360;28;19932;-26
2022/11/21 07:17:18;;;;;;;;;;;10.60;99.90;;;;;;5075033;28;20374;-26
2022/11/21 07:19:44;;;;;;;;;;;10.60;99.90;;;;;;5075536;28;20046;-26
2022/11/21 07:22:09;;;;;;;;;;;10.60;99.90;;;;;;5057307;28;19919;-26
2022/11/21 07:24:35;;;;;;;;;;;10.60;99.90;;;;;;5075915;28;19912;-26
2022/11/21 07:27:00;;;;;;;;;;;10.60;99.90;;;;;;5075077;28;20383;-27
2022/11/21 07:29:26;;;;;;;;;;;10.60;99.90;;;;;;5074243;28;19919;-26
2022/11/21 07:31:51;;;;;;;;;;;10.60;99.90;;;;;;5076433;28;19913;-25
2022/11/21 07:34:17;;;;;;;;;;;10.70;99.90;;;;;;5075431;28;20380;-25
2022/11/21 07:36:42;;;;;;;;;;;10.70;99.90;;;;;;5075540;28;19913;-26
2022/11/21 07:39:08;;;;;;;;;;;10.70;99.90;;;;;;5074845;28;19962;-26
2022/11/21 07:41:33;;;;;;;;;;;10.80;99.90;;;;;;5074829;28;20445;-26
2022/11/21 07:43:59;;;;;;;;;;;10.80;99.90;;;;;;5074521;28;20003;-26
2022/11/21 07:46:24;;;;;;;;;;;10.80;99.90;;;;;;5074541;28;20267;-26
2022/11/21 07:48:50;;;;;;;;;;;10.80;99.90;;;;;;5074260;28;19908;-26
2022/11/21 07:51:15;;;;;;;;;;;10.80;99.90;;;;;;5074299;28;20323;-26
2022/11/21 07:53:41;;;;;;;;;;;10.80;99.90;;;;;;5074515;28;20373;-25
2022/11/21 07:56:09;;;;;;;;;;;10.80;99.90;;;;;;5074357;28;19909;-25
2022/11/21 07:58:35;;;;;;;;;;;10.90;99.90;;;;;;5073575;28;19913;-26
2022/11/21 08:01:04;;;;;;;;;;;10.90;99.90;;;;;;5074431;28;19915;-26
2022/11/21 08:03:30;;;;;;;;;;;10.60;99.90;;;;;;5074739;28;20297;-26
2022/11/21 08:05:56;;;;;;;;;;;10.60;99.90;;;;;;5074664;28;19912;-26
2022/11/21 08:08:21;;;;;;;;;;;10.50;99.90;;;;;;5073757;28;19919;-26
2022/11/21 08:10:47;;;;;;;;;;;10.70;99.90;;;;;;5074448;28;20015;-26
2022/11/21 08:13:13;;;;;;;;;;;10.70;99.90;;;;;;5073611;28;19908;-26
2022/11/21 08:15:38;;;;;;;;;;;10.80;99.90;;;;;;5074648;28;20385;-26
2022/11/21 08:18:07;;;;;;;;;;;10.90;99.90;;;;;;5073843;28;20393;-26
2022/11/21 08:20:33;;;;;;;;;;;10.90;99.90;;;;;;5074321;28;19909;-26
2022/11/21 08:22:58;;;;;;;;;;;11.00;99.90;;;;;;5073802;28;20003;-26
2022/11/21 08:25:24;;;;;;;;;;;11.10;99.90;;;;;;5073942;28;19908;-26
2022/11/21 08:27:49;;;;;;;;;;;11.10;99.90;;;;;;5073423;28;19923;-26
2022/11/21 08:30:15;;;;;;;;;;;11.20;99.90;;;;;;5073818;28;19912;-25
2022/11/21 08:32:40;;;;;;;;;;;11.20;99.90;;;;;;5073797;28;19999;-26
2022/11/21 08:35:06;;;;;;;;;;;11.20;99.90;;;;;;5073821;28;20439;-26
2022/11/21 08:37:32;;;;;;;;;;;11.30;99.90;;;;;;5073685;28;19912;-26
2022/11/21 08:39:57;;;;;;;;;;;11.30;99.90;;;;;;5075398;28;19913;-26
2022/11/21 08:42:23;;;;;;;;;;;11.40;99.90;;;;;;5082685;28;20329;-26
2022/11/21 08:44:49;;;;;;;;;;;11.40;99.90;;;;;;5073503;28;19909;-26
2022/11/21 08:47:14;;;;;;;;;;;11.40;99.90;;;;;;5073506;28;19959;-26
2022/11/21 08:49:40;;;;;;;;;;;11.50;99.90;;;;;;5072743;28;19912;-26
2022/11/21 08:52:05;;;;;;;;;;;11.50;99.90;;;;;;5073276;28;20286;-26
2022/11/21 08:54:31;;;;;;;;;;;11.60;99.90;;;;;;5073400;28;20314;-27
2022/11/21 08:56:56;;;;;;;;;;;11.60;99.90;;;;;;5073294;28;20403;-26
2022/11/21 08:59:22;;;;;;;;;;;11.60;99.90;;;;;;5072644;28;20393;-26
2022/11/21 09:01:47;;;;;;;;;;;11.60;99.90;;;;;;5073263;28;20099;-26
2022/11/21 09:04:13;;;;;;;;;;;11.70;99.90;;;;;;5073267;28;19956;-27
2022/11/21 09:06:38;;;;;;;;;;;11.70;99.90;;;;;;5072964;28;19913;-26
2022/11/21 09:09:05;;;;;;;;;;;11.70;99.90;;;;;;5072865;28;19992;-26
2022/11/21 09:11:30;;;;;;;;;;;11.80;99.90;;;;;;5072962;28;19949;-26
2022/11/21 09:19:25;;;;;;;;;;;11.90;99.90;;;;;;5072408;28;19920;-26
2022/11/21 09:21:51;;;;;;;;;;;11.90;99.90;;;;;;5072792;28;19908;-26
2022/11/21 09:24:17;;;;;;;;;;;12.00;99.90;;;;;;5071789;28;20013;-26
2022/11/21 09:26:42;;;;;;;;;;;11.90;99.90;;;;;;5072466;28;19936;-27
2022/11/21 09:29:13;;;;;;;;;;;11.90;99.90;;;;;;5072185;28;19931;-26
2022/11/21 09:31:43;;;;;;;;;;;11.90;99.90;;;;;;5072565;28;19912;-27
2022/11/21 09:34:08;;;;;;;;;;;11.90;99.90;;;;;;5072664;28;20282;-26
2022/11/21 09:36:34;;;;;;;;;;;12.00;99.90;;;;;;5072879;28;19912;-26
2022/11/21 09:38:59;;;;;;;;;;;12.00;99.90;;;;;;5071805;28;19920;-26
2022/11/21 09:41:52;;;;;;;;;;;12.00;99.90;;;;;;5072431;28;20285;-27
2022/11/21 09:44:36;;;;;;;;;;;12.10;99.90;;;;;;5072320;28;20001;-26
2022/11/21 09:47:22;;;;;;;;;;;12.10;99.90;;;;;;5054149;28;19909;-26
2022/11/21 09:50:01;;;;;;;;;;;12.10;99.90;;;;;;5071790;28;19909;-26
2022/11/21 09:52:31;;;;;;;;;;;12.20;99.90;;;;;;5072140;28;20426;-26
2022/11/21 09:55:00;;;;;;;;;;;12.20;99.90;;;;;;5072179;28;19912;-26
2022/11/21 09:57:25;;;;;;;;;;;12.20;99.90;;;;;;5071984;28;20328;-26
2022/11/21 09:59:51;;;;;;;;;;;12.30;99.90;;;;;;5071649;28;19908;-26
2022/11/21 10:02:19;;;;;;;;;;;12.30;99.90;;;;;;5072172;28;19924;-26
2022/11/21 10:04:45;;;;;;;;;;;12.30;99.90;;;;;;5071830;28;19955;-27
2022/11/21 10:07:31;;;;;;;;;;;12.20;99.90;;;;;;5072047;28;19979;-27
2022/11/21 10:10:12;;;;;;;;;;;12.10;99.90;;;;;;5071334;28;19913;-27
2022/11/21 10:12:40;;;;;;;;;;;12.10;99.90;;;;;;5071743;28;20007;-27
2022/11/21 10:15:10;;;;;;;;;;;12.10;99.90;;;;;;5071746;28;19951;-26
2022/11/21 10:17:42;;;;;;;;;;;12.10;99.90;;;;;;5071903;28;20373;-27
2022/11/21 10:20:26;;;;;;;;;;;12.10;99.90;;;;;;5071239;28;20289;-27
2022/11/21 10:22:53;;;;;;;;;;;12.10;99.90;;;;;;5053490;28;19919;-27
2022/11/21 10:25:18;;;;;;;;;;;12.10;99.90;;;;;;5071659;28;19916;-27
2022/11/21 10:27:52;;;;;;;;;;;12.10;99.90;;;;;;5071310;28;19913;-27
2022/11/21 10:30:18;;;;;;;;;;;12.10;99.90;;;;;;5071488;28;20362;-27
2022/11/21 10:32:55;;;;;;;;;;;12.10;99.90;;;;;;5072155;28;19909;-27
2022/11/21 10:35:22;;;;;;;;;;;12.20;99.90;;;;;;5071253;28;19912;-27
2022/11/21 10:37:59;;;;;;;;;;;12.20;99.90;;;;;;5071393;28;19916;-27
2022/11/21 10:40:28;;;;;;;;;;;12.20;99.90;;;;;;5071608;28;19909;-27
2022/11/21 10:42:59;;;;;;;;;;;12.20;99.90;;;;;;5071955;28;19913;-27
2022/11/21 10:45:25;;;;;;;;;;;12.20;99.90;;;;;;5087389;28;19959;-27
2022/11/21 10:47:52;;;;;;;;;;;12.20;99.90;;;;;;5089518;28;20234;-27
2022/11/21 10:50:23;;;;;;;;;;;12.30;99.90;;;;;;5089221;28;20304;-28
2022/11/21 10:52:52;;;;;;;;;;;12.30;99.90;;;;;;5076348;28;19915;-27
2022/11/21 10:55:18;;;;;;;;;;;12.30;99.90;;;;;;5072015;28;19908;-27
2022/11/21 10:57:44;;;;;;;;;;;12.30;99.90;;;;;;5071370;28;19917;-27
2022/11/21 11:00:11;;;;;;;;;;;12.30;99.90;;;;;;5071239;28;20016;-27
2022/11/21 11:02:37;;;;;;;;;;;12.30;99.90;;;;;;5071147;28;19938;-27
2022/11/21 11:05:28;;;;;;;;;;;12.30;99.90;;;;;;5071332;28;20440;-27
2022/11/21 11:08:00;;;;;;;;;;;12.30;99.90;;;;;;5066620;28;20448;-28
2022/11/21 11:10:26;;;;;;;;;;;12.30;99.90;;;;;;5070953;28;19909;-28
2022/11/21 11:15:38;;;;;;;;;;;12.20;99.90;;;;;;5071016;28;19931;-27
2022/11/21 11:18:04;;;;;;;;;;;12.10;99.90;;;;;;5070440;28;20361;-27
2022/11/21 11:20:34;;;;;;;;;;;12.10;99.90;;;;;;5071039;28;19982;-27
2022/11/21 11:23:14;;;;;;;;;;;12.00;99.90;;;;;;5071052;28;19957;-27
2022/11/21 11:25:39;;;;;;;;;;;12.00;99.90;;;;;;5071103;28;19908;-27
2022/11/21 11:28:05;;;;;;;;;;;11.90;99.90;;;;;;5070469;28;19912;-27
2022/11/21 11:30:36;;;;;;;;;;;11.80;99.90;;;;;;5071118;28;19965;-27
2022/11/21 11:33:01;;;;;;;;;;;11.80;99.90;;;;;;5071023;28;19978;-27
2022/11/21 11:35:28;;;;;;;;;;;11.70;99.90;;;;;;5070908;28;20277;-27
2022/11/21 11:38:03;;;;;;;;;;;11.60;99.90;;;;;;5070504;28;19917;-27
2022/11/21 11:40:28;;;;;;;;;;;11.70;99.90;;;;;;5070983;28;20369;-27
2022/11/21 11:48:38;;;;;;;;;;;11.60;99.90;;;;;;5072955;28;19915;-28
2022/11/21 11:51:08;;;;;;;;;;;11.60;99.90;;;;;;5074372;28;19924;-27
2022/11/21 11:53:37;;;;;;;;;;;11.60;99.90;;;;;;5074282;28;19939;-27
2022/11/21 11:56:10;;;;;;;;;;;11.60;99.90;;;;;;5056292;28;19947;-27
2022/11/21 11:58:39;;;;;;;;;;;11.60;99.90;;;;;;5073793;28;20308;-27
2022/11/21 12:01:10;;;;;;;;;;;11.50;99.90;;;;;;5074232;28;19916;-27
2022/11/21 12:03:39;;;;;;;;;;;11.50;99.90;;;;;;5073924;28;19916;-27
2022/11/21 12:06:08;;;;;;;;;;;11.50;99.90;;;;;;5074384;28;19913;-27
2022/11/21 12:08:37;;;;;;;;;;;11.50;99.90;;;;;;5073460;28;20403;-27
2022/11/21 12:17:33;;;;;;;;;;;11.50;99.90;;;;;;5039507;28;19962;-27
2022/11/21 12:20:01;;;;;;;;;;;11.60;99.90;;;;;;5073275;28;19919;-27
2022/11/21 12:22:26;;;;;;;;;;;11.60;99.90;;;;;;5073616;28;19991;-27
2022/11/21 12:24:52;;;;;;;;;;;11.60;99.90;;;;;;5073890;28;20036;-27
2022/11/21 12:27:27;;;;;;;;;;;11.60;99.90;;;;;;5073705;28;20445;-27
2022/11/21 12:30:03;;;;;;;;;;;11.60;99.90;;;;;;5073338;28;19940;-27
2022/11/21 12:32:48;;;;;;;;;;;11.60;99.90;;;;;;5073633;28;19909;-27
2022/11/21 12:35:43;;;;;;;;;;;11.60;99.90;;;;;;5073026;28;20365;-27
2022/11/21 12:38:18;;;;;;;;;;;11.60;99.90;;;;;;5055498;28;20370;-28
2022/11/21 12:42:47;;;;;;;;;;;11.60;99.90;;;;;;5073552;28;19915;-27
2022/11/21 12:43:50;;;;;;;;;;;11.60;99.90;;;;;;5071977;28;19909;-27
2022/11/21 12:46:19;;;;;;;;;;;11.60;99.90;;;;;;5073459;28;19948;-27
2022/11/21 12:54:34;;;;;;;;;;;11.60;99.90;;;;;;5073482;28;20258;-27
2022/11/21 12:57:15;;;;;;;;;;;11.60;99.90;;;;;;5073562;28;19916;-27
2022/11/21 12:59:46;;;;;;;;;;;11.60;99.90;;;;;;5072407;28;19943;-27
2022/11/21 13:02:20;;;;;;;;;;;11.60;99.90;;;;;;5072904;28;20003;-27
2022/11/21 13:04:48;;;;;;;;;;;11.60;99.90;;;;;;5073122;28;19976;-27
2022/11/21 13:07:14;;;;;;;;;;;11.60;99.90;;;;;;5054996;28;19908;-27
2022/11/21 13:09:42;;;;;;;;;;;11.60;99.90;;;;;;5072491;28;20007;-27
2022/11/21 13:12:17;;;;;;;;;;;11.60;99.90;;;;;;5072747;28;19908;-27
2022/11/21 13:14:57;;;;;;;;;;;11.60;99.90;;;;;;5054763;28;20262;-27
2022/11/21 13:17:28;;;;;;;;;;;11.60;99.90;;;;;;5072597;28;19908;-27
2022/11/21 13:19:54;;;;;;;;;;;11.60;99.90;;;;;;5072253;28;19916;-27
2022/11/21 13:22:35;;;;;;;;;;;11.60;99.90;;;;;;5072542;28;19909;-27
2022/11/21 13:25:09;;;;;;;;;;;11.60;99.90;;;;;;5072543;28;19923;-27
2022/11/21 13:27:39;;;;;;;;;;;11.60;99.90;;;;;;5072733;28;19916;-27
2022/11/21 13:30:08;;;;;;;;;;;11.60;99.90;;;;;;5072079;28;20002;-27
2022/11/21 13:32:36;;;;;;;;;;;11.70;99.90;;;;;;5072536;28;20011;-27
2022/11/21 13:35:02;;;;;;;;;;;11.60;99.90;;;;;;5072693;28;19989;-27
2022/11/21 13:37:57;;;;;;;;;;;11.60;99.90;;;;;;5072145;28;19912;-28
2022/11/21 13:40:25;;;;;;;;;;;11.60;99.90;;;;;;5072112;28;19932;-27
2022/11/21 13:43:10;;;;;;;;;;;11.60;99.90;;;;;;5072299;28;20392;-27
2022/11/21 13:45:38;;;;;;;;;;;11.60;99.90;;;;;;5072183;28;19908;-27
2022/11/21 13:48:09;;;;;;;;;;;11.60;99.90;;;;;;5071825;28;19912;-27
2022/11/21 13:50:55;;;;;;;;;;;11.60;99.90;;;;;;5072144;28;19908;-27
2022/11/21 13:53:30;;;;;;;;;;;11.60;99.90;;;;;;5071467;28;19912;-27
2022/11/21 13:56:05;;;;;;;;;;;11.60;99.90;;;;;;5072127;28;19909;-27
2022/11/21 13:58:36;;;;;;;;;;;11.60;99.90;;;;;;5071793;28;19977;-27
2022/11/21 14:01:01;;;;;;;;;;;11.60;99.90;;;;;;5072049;28;19908;-27
2022/11/21 14:03:33;;;;;;;;;;;11.60;99.90;;;;;;5110138;22;19925;-24
2022/11/21 14:06:09;;;;;;;;;;;11.50;99.90;;;;;;5094894;28;20008;-24
2022/11/21 14:08:34;;;;;;;;;;;11.50;99.90;;;;;;5093859;28;19919;-24
2022/11/21 14:11:17;;;;;;;;;;;11.50;99.90;;;;;;5093820;28;19908;-24
2022/11/21 14:13:45;;;;;;;;;;;11.50;99.90;;;;;;5095381;28;20361;-23
2022/11/21 14:16:30;;;;;;;;;;;11.50;99.90;;;;;;5095069;28;20498;-24
2022/11/21 14:18:57;;;;;;;;;;;11.50;99.90;;;;;;5092163;28;19916;-24
2022/11/21 14:21:27;;;;;;;;;;;11.50;99.90;;;;;;5093938;28;19908;-24
2022/11/21 14:23:58;;;;;;;;;;;11.50;99.90;;;;;;5093337;28;19908;-24
2022/11/21 14:26:24;;;;;;;;;;;11.40;99.90;;;;;;5076112;28;19908;-24
2022/11/21 14:28:50;;;;;;;;;;;11.50;99.90;;;;;;5093171;28;19912;-24
2022/11/21 14:31:16;;;;;;;;;;;11.50;99.90;;;;;;5095446;28;20556;-24
2022/11/21 14:33:43;;;;;;;;;;;11.40;99.90;;;;;;5076574;28;19971;-23
2022/11/21 14:36:25;;;;;;;;;;;11.50;99.90;;;;;;5075888;28;19930;-24
2022/11/21 14:38:51;;;;;;;;;;;11.40;99.90;;;;;;5093288;28;19952;-24
2022/11/21 14:41:17;;;;;;;;;;;11.40;99.90;;;;;;5093642;28;19950;-24
2022/11/21 14:43:42;;;;;;;;;;;11.40;99.90;;;;;;5093563;28;19912;-25
2022/11/21 14:46:19;;;;;;;;;;;11.40;99.90;;;;;;5093851;28;20376;-24
2022/11/21 14:48:45;;;;;;;;;;;11.40;99.90;;;;;;5093823;28;19908;-23
2022/11/21 14:51:13;;;;;;;;;;;11.40;99.90;;;;;;5094697;28;20350;-24
2022/11/21 14:53:40;;;;;;;;;;;11.40;99.90;;;;;;5095618;28;19908;-24